Latest Weather Observations for Melbourne (Olympic Park)

IDV60901

Issued at 12:11 pm EDT Tuesday 9 February 2016 (issued every 10 minutes, with the page automatically refreshed every 10 minutes)

About weather observations | Map of Melbourne area stations | Latest observations for Melbourne area | Other Formats
Station Details ID: 086338 Name: MELBOURNE (OLYMPIC PARK) Lat: -37.83 Lon: 144.98 Height: 7.53 m
Data from the previous 72 hours. | See also: Recent months at Melbourne (Olympic Park)
Date/Time
EDT
Tmp

°C
App
Tmp
°C
Dew
Point
°C
Rel
Hum
%
Delta-T

°C
Wind Press
QNH
hPa
Press
MSL
hPa
Rain
since
9 am
mm
Dir
 
Spd
km/h
Gust
km/h
Spd
kts
Gust
kts
09/12:00pm 21.4 20.4 13.3 60 4.6 SSW 11 19 6 10 1020.8 1020.8 0.0
09/11:30am 20.6 19.3 12.6 60 4.5 SSW 11 19 6 10 1021.1 1021.1 0.0
09/11:00am 20.1 18.8 12.6 62 4.2 SW 11 20 6 11 1021.2 1021.2 0.0
09/10:30am 20.5 19.0 13.0 62 4.3 S 13 24 7 13 1021.4 1021.4 0.0
09/10:00am 20.9 20.7 13.1 61 4.4 SSE 6 15 3 8 1021.4 1021.4 0.0
09/09:30am 19.9 19.4 12.7 63 4.1 SSE 7 13 4 7 1021.7 1021.7 0.0
09/09:00am 19.1 18.4 12.1 64 3.9 SSE 7 17 4 9 1021.9 1021.9 0.0
09/08:30am 18.5 17.5 12.3 67 3.4 S 9 13 5 7 1021.9 1021.9 0.0
09/08:00am 18.1 17.6 11.9 67 3.4 SSE 6 11 3 6 1021.9 1021.9 0.0
09/07:30am 17.8 17.0 11.6 67 3.4 SE 7 13 4 7 1021.6 1021.6 0.0
09/07:00am 17.4 16.1 11.4 68 3.2 SSE 9 15 5 8 1021.5 1021.5 0.0
09/06:30am 17.5 16.2 11.3 67 3.4 SE 9 13 5 7 1021.5 1021.5 0.0
09/06:00am 17.7 16.5 11.7 68 3.3 SSE 9 15 5 8 1021.4 1021.4 0.0
09/05:30am 17.7 15.8 11.9 69 3.2 SSE 13 19 7 10 1021.3 1021.3 0.0
09/05:00am 17.8 17.1 12.0 69 3.2 ESE 7 13 4 7 1021.1 1021.1 0.0
09/04:30am 17.9 16.8 12.1 69 3.2 SSE 9 17 5 9 1021.1 1021.1 0.0
09/04:00am 18.0 17.0 12.2 69 3.2 SE 9 13 5 7 1021.2 1021.2 0.0
09/03:30am 18.1 16.7 12.1 68 3.3 SSE 11 20 6 11 1021.3 1021.3 0.0
09/03:00am 18.0 17.5 12.5 70 3.0 S 7 15 4 8 1021.4 1021.4 0.0
09/02:30am 17.9 16.9 12.4 70 3.1 SSE 9 17 5 9 1021.5 1021.5 0.0
09/02:00am 18.6 17.8 12.8 69 3.2 SSE 9 17 5 9 1021.7 1021.7 0.0
09/01:30am 18.8 18.4 13.0 69 3.3 SSE 7 13 4 7 1021.9 1021.9 0.0
09/01:00am 18.7 17.8 12.5 67 3.4 SSE 9 17 5 9 1022.4 1022.4 0.0
09/12:30am 19.0 17.9 13.0 68 3.4 SSE 11 15 6 8 1022.5 1022.5 0.0
09/12:00am 19.0 18.2 13.0 68 3.4 SSE 9 17 5 9 1022.7 1022.7 0.0
 
Date/Time
EDT
Tmp

°C
App
Tmp
°C
Dew
Point
°C
Rel
Hum
%
Delta-T

°C
Wind Press
QNH
hPa
Press
MSL
hPa
Rain
since
9 am
mm
Dir
 
Spd
km/h
Gust
km/h
Spd
kts
Gust
kts
08/11:30pm 19.1 17.6 13.1 68 3.4 SSE 13 19 7 10 1022.9 1022.9 0.0
08/11:00pm 19.2 18.0 12.9 67 3.5 SSE 11 19 6 10 1023.0 1023.0 0.0
08/10:30pm 19.3 18.3 13.3 68 3.4 SSE 11 20 6 11 1023.0 1023.0 0.0
08/10:00pm 19.5 18.2 13.7 69 3.3 S 13 24 7 13 1022.9 1022.9 0.0
08/09:30pm 19.5 18.0 14.1 71 3.1 S 15 24 8 13 1022.8 1022.8 0.0
08/09:00pm 19.5 18.3 14.1 71 3.1 S 13 22 7 12 1022.3 1022.3 0.0
08/08:30pm 19.7 18.5 13.9 69 3.3 S 13 28 7 15 1022.1 1022.1 0.0
08/08:00pm 19.9 18.4 14.3 70 3.2 S 15 26 8 14 1021.8 1021.8 0.0
08/07:30pm 20.3 18.8 14.2 68 3.5 S 15 30 8 16 1021.6 1021.6 0.0
08/07:00pm 20.6 18.7 14.3 67 3.7 SSW 17 32 9 17 1021.4 1021.4 0.0
08/06:30pm 21.0 19.5 14.2 65 4.0 SSW 15 28 8 15 1021.3 1021.3 0.0
08/06:00pm 21.5 19.7 14.4 64 4.1 SSW 17 30 9 16 1021.3 1021.3 0.0
08/05:30pm 21.0 18.6 13.9 64 4.1 S 19 32 10 17 1021.4 1021.4 0.0
08/05:00pm 21.5 19.3 14.4 64 4.1 SSW 19 33 10 18 1021.5 1021.5 0.0
08/04:30pm 21.0 19.0 13.9 64 4.1 SSW 17 28 9 15 1021.7 1021.7 0.0
08/04:00pm 21.3 19.0 14.2 64 4.1 S 19 32 10 17 1021.8 1021.8 0.0
08/03:30pm 21.5 19.1 13.7 61 4.5 SSW 19 32 10 17 1021.9 1021.9 0.0
08/03:00pm 21.8 19.4 13.7 60 4.7 SSW 19 33 10 18 1022.0 1022.0 0.0
08/02:30pm 22.4 21.2 14.0 59 4.9 SSW 13 26 7 14 1022.0 1022.0 0.0
08/02:00pm 21.9 20.0 13.0 57 5.1 SSW 15 26 8 14 1022.2 1022.2 0.0
08/01:30pm 22.0 20.5 13.1 57 5.1 S 13 20 7 11 1022.2 1022.2 0.0
08/01:00pm 22.4 21.2 12.9 55 5.4 SSW 11 20 6 11 1022.4 1022.4 0.0
08/12:30pm 21.2 19.5 12.3 57 5.0 SSW 13 24 7 13 1022.6 1022.6 0.0
08/12:00pm 21.4 20.7 14.3 64 4.1 SSW 11 19 6 10 1022.6 1022.6 0.0
08/11:30am 20.7 19.5 13.9 65 3.9 SSW 13 20 7 11 1022.8 1022.8 0.0
08/11:00am 20.7 19.5 14.1 66 3.8 SSW 13 20 7 11 1022.7 1022.7 0.0
08/10:30am 20.2 19.4 13.9 67 3.6 S 11 17 6 9 1022.8 1022.8 0.0
08/10:00am 20.1 19.8 14.5 70 3.2 SSW 9 22 5 12 1022.5 1022.5 0.0
08/09:30am 19.8 18.7 14.2 70 3.2 S 13 20 7 11 1022.3 1022.3 0.0
08/09:00am 20.0 19.4 14.6 71 3.1 SSW 11 17 6 9 1022.1 1022.1 0.0
08/08:30am 19.8 19.5 14.4 71 3.1 S 9 17 5 9 1021.8 1021.8 0.0
08/08:00am 19.6 19.8 14.6 73 2.9 S 7 15 4 8 1021.5 1021.5 0.0
08/07:30am 19.4 19.4 15.1 76 2.5 SSW 9 17 5 9 1021.2 1021.2 0.0
08/07:00am 19.4 20.0 15.7 79 2.2 S 7 17 4 9 1021.1 1021.1 0.0
08/06:30am 19.3 20.1 15.8 80 2.1 SSW 6 15 3 8 1020.8 1020.8 0.0
08/06:00am 19.5 20.3 15.8 79 2.2 SSW 6 11 3 6 1020.5 1020.5 0.0
08/05:30am 19.5 20.0 15.6 78 2.3 SSW 7 13 4 7 1020.2 1020.2 0.0
08/05:00am 19.5 20.4 16.0 80 2.1 S 6 15 3 8 1020.2 1020.2 0.0
08/04:30am 19.3 19.8 15.6 79 2.2 S 7 11 4 6 1020.0 1020.0 0.0
08/04:00am 19.3 20.4 15.6 79 2.2 SSW 4 11 2 6 1020.0 1020.0 0.0
08/03:30am 19.5 20.3 15.8 79 2.2 S 6 13 3 7 1020.1 1020.1 0.0
08/03:00am 19.6 20.4 15.9 79 2.2 SSW 6 13 3 7 1020.2 1020.2 0.0
08/02:30am 19.6 19.5 16.1 80 2.1 S 11 19 6 10 1020.4 1020.4 0.0
08/02:00am 19.7 20.1 16.2 80 2.1 SSW 9 17 5 9 1020.4 1020.4 0.0
08/01:30am 19.8 19.9 16.4 81 2.0 SSW 11 20 6 11 1020.4 1020.4 0.0
08/01:00am 20.0 20.3 17.0 83 1.8 S 11 20 6 11 1020.2 1020.2 0.0
08/12:30am 19.9 20.2 16.9 83 1.8 SSW 11 22 6 12 1020.0 1020.0 0.0
08/12:00am 20.1 20.5 17.3 84 1.7 SSW 11 20 6 11 1019.9 1019.9 0.0
 
Date/Time
EDT
Tmp

°C
App
Tmp
°C
Dew
Point
°C
Rel
Hum
%
Delta-T

°C
Wind Press
QNH
hPa
Press
MSL
hPa
Rain
since
9 am
mm
Dir
 
Spd
km/h
Gust
km/h
Spd
kts
Gust
kts
07/11:30pm 20.2 21.1 17.6 85 1.6 SSW 9 17 5 9 1019.9 1019.9 0.0
07/11:00pm 20.3 21.7 17.9 86 1.5 SSW 7 15 4 8 1019.7 1019.7 0.0
07/10:30pm 20.2 21.2 17.8 86 1.5 SSW 9 13 5 7 1019.5 1019.5 0.0
07/10:00pm 20.4 21.4 17.8 85 1.6 SSW 9 17 5 9 1019.6 1019.6 0.0
07/09:30pm 20.6 20.8 17.6 83 1.8 SSW 13 22 7 12 1019.2 1019.2 0.0
07/09:00pm 20.9 20.8 17.9 83 1.9 SSW 15 24 8 13 1018.8 1018.8 0.0
07/08:30pm 21.4 21.4 18.2 82 2.0 SSW 15 22 8 12 1018.0 1018.0 0.0
07/08:00pm 22.3 22.1 17.7 75 2.8 SSW 15 24 8 13 1017.6 1017.6 0.0
07/07:30pm 23.7 23.8 16.5 64 4.4 SSW 11 20 6 11 1017.0 1017.0 0.0
07/07:00pm 24.6 23.8 15.2 55 5.6 SSW 13 26 7 14 1016.5 1016.5 0.0
07/06:30pm 24.7 23.2 14.2 52 6.2 SSW 15 24 8 13 1016.2 1016.2 0.0
07/06:00pm 24.3 23.3 16.6 62 4.7 SSW 17 26 9 14 1016.2 1016.2 0.0
07/05:30pm 24.8 24.5 17.3 63 4.7 S 15 33 8 18 1015.7 1015.7 0.0
07/05:00pm 24.8 23.7 17.3 63 4.7 SSW 19 35 10 19 1015.7 1015.7 0.0
07/04:30pm 27.1 26.6 15.8 50 6.9 SW 13 24 7 13 1015.3 1015.3 0.0
07/04:00pm 26.7 26.6 16.9 55 6.1 SW 13 22 7 12 1015.3 1015.3 0.0
07/03:30pm 27.0 27.5 18.3 59 5.5 SSW 13 24 7 13 1015.4 1015.4 0.0
07/03:00pm 25.6 26.5 18.3 64 4.6 SSW 11 20 6 11 1015.8 1015.8 0.0
07/02:30pm 25.4 25.3 18.8 67 4.2 SSW 17 26 9 14 1016.1 1016.1 0.0
07/02:00pm 25.2 24.7 17.7 63 4.7 SSW 17 22 9 12 1016.2 1016.2 0.0
07/01:30pm 26.1 26.7 16.9 57 5.7 SSW 9 17 5 9 1016.1 1016.1 0.0
07/01:00pm 25.3 25.8 17.5 62 4.9 S 11 20 6 11 1016.4 1016.4 0.0
07/12:30pm 24.6 25.1 18.3 68 4.0 S 13 19 7 10 1016.7 1016.7 0.0
07/12:00pm 24.0 24.4 18.2 70 3.6 SSW 13 19 7 10 1016.8 1016.8 0.0
07/11:30am 24.7 25.6 18.4 68 4.0 S 11 17 6 9 1017.0 1017.0 0.0
07/11:00am 23.8 23.8 17.1 66 4.1 S 13 20 7 11 1017.2 1017.2 0.0
07/10:30am 23.6 23.9 18.0 71 3.5 S 13 19 7 10 1017.2 1017.2 0.0
07/10:00am 25.0 24.9 15.0 53 6.0 SSW 9 13 5 7 1017.0 1017.0 0.0
07/09:30am 25.0 26.4 15.3 55 5.8 SSE 2 9 1 5 1016.7 1016.7 0.0
07/09:00am 22.9 23.4 13.9 57 5.2 NE 4 7 2 4 1016.6 1016.6 0.0
07/08:30am 21.4 21.7 14.6 65 4.0 NNE 6 9 3 5 1016.4 1016.4 0.0
07/08:00am 20.2 19.8 14.1 68 3.5 NNE 9 13 5 7 1015.9 1015.9 0.0
07/07:30am 19.3 18.9 14.1 72 3.0 NNE 9 11 5 6 1015.8 1015.8 0.0
07/07:00am 19.2 18.8 14.2 73 2.9 NNE 9 13 5 7 1015.5 1015.5 0.0
07/06:30am 19.4 19.0 14.2 72 3.0 NNE 9 13 5 7 1015.2 1015.2 0.0
07/06:00am 19.6 19.6 14.2 71 3.1 NNE 7 11 4 6 1014.9 1014.9 0.0
07/05:30am 19.9 19.7 14.7 72 3.0 NNE 9 13 5 7 1014.7 1014.7 0.0
07/05:00am 20.0 21.2 16.0 78 2.4 ENE 4 13 2 7 1014.6 1014.6 0.0
07/04:30am 19.7 22.1 17.1 85 1.6 CALM 0 0 0 0 1014.6 1014.6 0.0
07/04:00am 20.2 22.6 17.0 82 1.9 CALM 0 0 0 0 1014.4 1014.4 0.0
07/03:30am 20.3 23.0 17.7 85 1.6 CALM 0 0 0 0 1014.5 1014.5 0.0
07/03:00am 20.4 23.0 17.6 84 1.7 CALM 0 0 0 0 1014.5 1014.5 0.0
07/02:30am 20.9 23.7 17.9 83 1.9 CALM 0 0 0 0 1014.5 1014.5 0.0
07/02:00am 21.6 24.4 18.0 80 2.2 CALM 0 4 0 2 1014.5 1014.5 0.0
07/01:30am 21.4 23.6 16.6 74 2.9 CALM 0 0 0 0 1014.8 1014.8 0.0
07/01:00am 22.0 24.2 16.5 71 3.3 CALM 0 0 0 0 1014.8 1014.8 0.0
07/12:30am 22.4 24.4 16.0 67 3.9 CALM 0 0 0 0 1014.8 1014.8 0.0
07/12:00am 22.5 24.3 15.4 64 4.2 CALM 0 0 0 0 1014.7 1014.7 0.0
 
Date/Time
EDT
Tmp

°C
App
Tmp
°C
Dew
Point
°C
Rel
Hum
%
Delta-T

°C
Wind Press
QNH
hPa
Press
MSL
hPa
Rain
since
9 am
mm
Dir
 
Spd
km/h
Gust
km/h
Spd
kts
Gust
kts
06/11:30pm 23.2 24.9 15.3 61 4.7 CALM 0 0 0 0 1014.6 1014.6 0.0
06/11:00pm 24.3 26.0 15.2 57 5.5 CALM 0 0 0 0 1014.5 1014.5 0.0
06/10:30pm 24.7 26.4 15.1 55 5.8 CALM 0 0 0 0 1014.3 1014.3 0.0
06/10:00pm 25.8 27.4 14.9 51 6.5 CALM 0 0 0 0 1014.1 1014.1 0.0
06/09:30pm 27.1 28.3 13.8 44 7.9 CALM 0 0 0 0 1013.7 1013.7 0.0
06/09:00pm 28.6 28.5 13.3 39 9.1 ESE 6 13 3 7 1013.4 1013.4 0.0
06/08:30pm 29.3 28.6 13.1 37 9.6 E 9 19 5 10 1013.1 1013.1 0.0
06/08:00pm 30.2 28.9 12.6 34 10.4 ESE 11 20 6 11 1012.9 1012.9 0.0
06/07:30pm 30.7 28.9 12.1 32 10.9 ESE 13 22 7 12 1012.7 1012.7 0.0
06/07:00pm 31.5 30.0 11.8 30 11.5 ESE 11 20 6 11 1012.6 1012.6 0.0
06/06:30pm 31.8 30.7 12.1 30 11.6 SE 9 17 5 9 1012.6 1012.6 0.0
06/06:00pm 32.2 30.2 10.3 26 12.6 SSE 11 20 6 11 1012.6 1012.6 0.0
06/05:30pm 31.9 29.7 9.4 25 12.7 SSE 11 19 6 10 1012.8 1012.8 0.0
06/05:00pm 32.4 30.1 10.4 26 12.7 S 13 20 7 11 1013.0 1013.0 0.0
06/04:30pm 31.8 29.4 9.9 26 12.5 S 13 20 7 11 1013.3 1013.3 0.0
06/04:00pm 31.5 28.6 9.7 26 12.3 SSW 15 22 8 12 1013.8 1013.8 0.0
06/03:30pm 30.8 28.9 11.7 31 11.1 SSW 13 20 7 11 1014.1 1014.1 0.0
06/03:00pm 31.2 30.3 12.5 31 11.1 SSW 9 17 5 9 1014.3 1014.3 0.0
06/02:30pm 31.0 30.3 13.3 34 10.6 SSW 9 20 5 11 1014.5 1014.5 0.0
06/02:00pm 30.9 30.0 11.3 30 11.4 S 7 13 4 7 1015.0 1015.0 0.0
06/01:30pm 29.9 29.2 11.4 32 10.7 NNW 6 11 3 6 1015.4 1015.4 0.0
06/01:00pm 29.3 29.1 13.1 37 9.6 N 6 13 3 7 1015.7 1015.7 0.0
06/12:30pm 28.4 27.0 12.3 37 9.4 N 11 20 6 11 1016.1 1016.1 0.0

Latest Capital City Observations: Canberra | Sydney | Melbourne | Brisbane | Adelaide | Perth | Hobart | Darwin

Other Formats:

Comma delimited format used in spreadsheet applications
http://www.bom.gov.au/fwo/IDV60901/IDV60901.95936.axf

JavaScript Object Notation format (JSON) in row-major order
http://www.bom.gov.au/fwo/IDV60901/IDV60901.95936.json